sensor_id;sensor_type;location;lat;lon;timestamp;temperature;humidity
47757;SHT35;22147;52.388;13.390;2023-06-26T00:00:36;17.91;86.97
47757;SHT35;22147;52.388;13.390;2023-06-26T00:03:07;17.93;87.06
47757;SHT35;22147;52.388;13.390;2023-06-26T00:05:38;17.90;87.09
47757;SHT35;22147;52.388;13.390;2023-06-26T00:08:08;17.86;87.33
47757;SHT35;22147;52.388;13.390;2023-06-26T00:10:38;17.84;87.54
47757;SHT35;22147;52.388;13.390;2023-06-26T00:13:09;17.86;87.70
47757;SHT35;22147;52.388;13.390;2023-06-26T00:15:40;17.84;87.82
47757;SHT35;22147;52.388;13.390;2023-06-26T00:18:09;17.81;87.88
47757;SHT35;22147;52.388;13.390;2023-06-26T00:20:37;17.78;87.98
47757;SHT35;22147;52.388;13.390;2023-06-26T00:23:06;17.78;88.02
47757;SHT35;22147;52.388;13.390;2023-06-26T00:25:34;17.76;88.00
47757;SHT35;22147;52.388;13.390;2023-06-26T00:28:03;17.76;87.97
47757;SHT35;22147;52.388;13.390;2023-06-26T00:30:31;17.74;87.89
47757;SHT35;22147;52.388;13.390;2023-06-26T00:33:00;17.74;87.93
47757;SHT35;22147;52.388;13.390;2023-06-26T00:35:28;17.70;88.01
47757;SHT35;22147;52.388;13.390;2023-06-26T00:37:56;17.70;88.00
47757;SHT35;22147;52.388;13.390;2023-06-26T00:40:25;17.70;87.98
47757;SHT35;22147;52.388;13.390;2023-06-26T00:42:56;17.67;87.90
47757;SHT35;22147;52.388;13.390;2023-06-26T00:45:25;17.65;87.88
47757;SHT35;22147;52.388;13.390;2023-06-26T00:48:11;17.62;87.89
47757;SHT35;22147;52.388;13.390;2023-06-26T00:50:42;17.60;87.95
47757;SHT35;22147;52.388;13.390;2023-06-26T00:53:13;17.59;87.95
47757;SHT35;22147;52.388;13.390;2023-06-26T00:55:44;17.56;87.98
47757;SHT35;22147;52.388;13.390;2023-06-26T00:58:15;17.55;88.02
47757;SHT35;22147;52.388;13.390;2023-06-26T01:00:44;17.53;88.09
47757;SHT35;22147;52.388;13.390;2023-06-26T01:03:15;17.55;88.14
47757;SHT35;22147;52.388;13.390;2023-06-26T01:05:44;17.50;88.21
47757;SHT35;22147;52.388;13.390;2023-06-26T01:08:18;17.49;88.25
47757;SHT35;22147;52.388;13.390;2023-06-26T01:10:49;17.48;88.29
47757;SHT35;22147;52.388;13.390;2023-06-26T01:13:21;17.45;88.22
47757;SHT35;22147;52.388;13.390;2023-06-26T01:15:53;17.43;88.20
47757;SHT35;22147;52.388;13.390;2023-06-26T01:18:26;17.42;88.25
47757;SHT35;22147;52.388;13.390;2023-06-26T01:20:59;17.43;88.29
47757;SHT35;22147;52.388;13.390;2023-06-26T01:24:07;17.40;88.30
47757;SHT35;22147;52.388;13.390;2023-06-26T01:26:44;17.38;88.29
47757;SHT35;22147;52.388;13.390;2023-06-26T01:29:18;17.35;88.31
47757;SHT35;22147;52.388;13.390;2023-06-26T01:31:49;17.34;88.38
47757;SHT35;22147;52.388;13.390;2023-06-26T01:34:20;17.34;88.43
47757;SHT35;22147;52.388;13.390;2023-06-26T01:36:51;17.31;88.47
47757;SHT35;22147;52.388;13.390;2023-06-26T01:39:21;17.31;88.45
47757;SHT35;22147;52.388;13.390;2023-06-26T01:41:51;17.28;88.49
47757;SHT35;22147;52.388;13.390;2023-06-26T01:44:42;17.25;88.90
47757;SHT35;22147;52.388;13.390;2023-06-26T01:47:22;17.22;89.12
47757;SHT35;22147;52.388;13.390;2023-06-26T01:50:06;17.21;89.24
47757;SHT35;22147;52.388;13.390;2023-06-26T01:53:11;17.19;89.34
47757;SHT35;22147;52.388;13.390;2023-06-26T01:56:06;17.18;89.36
47757;SHT35;22147;52.388;13.390;2023-06-26T01:58:45;17.18;89.29
47757;SHT35;22147;52.388;13.390;2023-06-26T02:01:15;17.15;89.29
47757;SHT35;22147;52.388;13.390;2023-06-26T02:03:45;17.14;89.32
47757;SHT35;22147;52.388;13.390;2023-06-26T02:06:16;17.12;89.38
47757;SHT35;22147;52.388;13.390;2023-06-26T02:08:46;17.09;89.39
47757;SHT35;22147;52.388;13.390;2023-06-26T02:11:16;17.08;89.39
47757;SHT35;22147;52.388;13.390;2023-06-26T02:13:46;17.07;89.38
47757;SHT35;22147;52.388;13.390;2023-06-26T02:16:16;17.07;89.39
47757;SHT35;22147;52.388;13.390;2023-06-26T02:18:47;17.04;89.30
47757;SHT35;22147;52.388;13.390;2023-06-26T02:21:17;17.02;89.30
47757;SHT35;22147;52.388;13.390;2023-06-26T02:23:47;17.01;89.30
47757;SHT35;22147;52.388;13.390;2023-06-26T02:26:17;17.00;89.26
47757;SHT35;22147;52.388;13.390;2023-06-26T02:28:48;16.97;89.23
47757;SHT35;22147;52.388;13.390;2023-06-26T02:31:18;16.97;89.27
47757;SHT35;22147;52.388;13.390;2023-06-26T02:33:48;16.94;89.28
47757;SHT35;22147;52.388;13.390;2023-06-26T02:36:18;16.95;89.29
47757;SHT35;22147;52.388;13.390;2023-06-26T02:38:49;16.90;89.44
47757;SHT35;22147;52.388;13.390;2023-06-26T02:41:19;16.90;89.49
47757;SHT35;22147;52.388;13.390;2023-06-26T02:43:49;16.88;89.57
47757;SHT35;22147;52.388;13.390;2023-06-26T02:46:19;16.85;89.64
47757;SHT35;22147;52.388;13.390;2023-06-26T02:48:49;16.87;89.70
47757;SHT35;22147;52.388;13.390;2023-06-26T02:51:19;16.85;89.70
47757;SHT35;22147;52.388;13.390;2023-06-26T02:53:49;16.87;89.71
47757;SHT35;22147;52.388;13.390;2023-06-26T02:56:20;16.84;89.72
47757;SHT35;22147;52.388;13.390;2023-06-26T02:58:48;16.90;89.77
47757;SHT35;22147;52.388;13.390;2023-06-26T03:01:16;16.91;89.76
47757;SHT35;22147;52.388;13.390;2023-06-26T03:03:45;16.88;89.79
47757;SHT35;22147;52.388;13.390;2023-06-26T03:06:16;16.87;89.75
47757;SHT35;22147;52.388;13.390;2023-06-26T03:08:45;16.88;89.75
47757;SHT35;22147;52.388;13.390;2023-06-26T03:11:13;16.87;89.80
47757;SHT35;22147;52.388;13.390;2023-06-26T03:13:42;16.88;89.83
47757;SHT35;22147;52.388;13.390;2023-06-26T03:16:10;16.88;89.83
47757;SHT35;22147;52.388;13.390;2023-06-26T03:18:38;16.91;89.81
47757;SHT35;22147;52.388;13.390;2023-06-26T03:21:08;16.91;89.81
47757;SHT35;22147;52.388;13.390;2023-06-26T03:23:42;16.92;89.86
47757;SHT35;22147;52.388;13.390;2023-06-26T03:26:12;16.95;89.84
47757;SHT35;22147;52.388;13.390;2023-06-26T03:28:44;16.97;89.81
47757;SHT35;22147;52.388;13.390;2023-06-26T03:31:14;17.00;89.78
47757;SHT35;22147;52.388;13.390;2023-06-26T03:33:45;17.01;89.78
47757;SHT35;22147;52.388;13.390;2023-06-26T03:36:15;17.09;89.72
47757;SHT35;22147;52.388;13.390;2023-06-26T03:38:45;17.14;89.70
47757;SHT35;22147;52.388;13.390;2023-06-26T03:41:16;17.24;89.65
47757;SHT35;22147;52.388;13.390;2023-06-26T03:43:46;17.31;89.60
47757;SHT35;22147;52.388;13.390;2023-06-26T03:46:16;17.40;89.56
47757;SHT35;22147;52.388;13.390;2023-06-26T03:48:47;17.45;89.49
47757;SHT35;22147;52.388;13.390;2023-06-26T03:51:17;17.56;89.53
47757;SHT35;22147;52.388;13.390;2023-06-26T03:53:48;17.67;89.50
47757;SHT35;22147;52.388;13.390;2023-06-26T03:56:18;17.77;89.46
47757;SHT35;22147;52.388;13.390;2023-06-26T03:58:48;17.88;89.39
47757;SHT35;22147;52.388;13.390;2023-06-26T04:01:18;18.01;89.41
47757;SHT35;22147;52.388;13.390;2023-06-26T04:03:53;18.13;89.36
47757;SHT35;22147;52.388;13.390;2023-06-26T04:06:24;18.25;89.23
47757;SHT35;22147;52.388;13.390;2023-06-26T04:08:54;18.38;89.07
47757;SHT35;22147;52.388;13.390;2023-06-26T04:11:25;18.46;88.85
47757;SHT35;22147;52.388;13.390;2023-06-26T04:13:52;18.56;88.67
47757;SHT35;22147;52.388;13.390;2023-06-26T04:16:21;18.66;88.50
47757;SHT35;22147;52.388;13.390;2023-06-26T04:18:53;18.77;88.35
47757;SHT35;22147;52.388;13.390;2023-06-26T04:21:25;18.86;88.27
47757;SHT35;22147;52.388;13.390;2023-06-26T04:23:53;18.92;88.26
47757;SHT35;22147;52.388;13.390;2023-06-26T04:26:24;18.99;88.26
47757;SHT35;22147;52.388;13.390;2023-06-26T04:28:53;19.07;88.23
47757;SHT35;22147;52.388;13.390;2023-06-26T04:31:21;19.15;88.24
47757;SHT35;22147;52.388;13.390;2023-06-26T04:33:49;19.23;88.12
47757;SHT35;22147;52.388;13.390;2023-06-26T04:36:18;19.32;87.95
47757;SHT35;22147;52.388;13.390;2023-06-26T04:38:47;19.37;86.99
47757;SHT35;22147;52.388;13.390;2023-06-26T04:41:18;19.44;86.86
47757;SHT35;22147;52.388;13.390;2023-06-26T04:43:47;19.54;86.55
47757;SHT35;22147;52.388;13.390;2023-06-26T04:46:15;19.59;85.55
47757;SHT35;22147;52.388;13.390;2023-06-26T04:48:43;19.68;85.04
47757;SHT35;22147;52.388;13.390;2023-06-26T04:51:17;19.66;84.40
47757;SHT35;22147;52.388;13.390;2023-06-26T04:53:50;19.73;84.22
47757;SHT35;22147;52.388;13.390;2023-06-26T04:56:20;19.86;84.29
47757;SHT35;22147;52.388;13.390;2023-06-26T04:58:51;19.99;84.31
47757;SHT35;22147;52.388;13.390;2023-06-26T05:01:21;20.09;84.23
47757;SHT35;22147;52.388;13.390;2023-06-26T05:03:51;20.24;84.05
47757;SHT35;22147;52.388;13.390;2023-06-26T05:06:22;20.41;83.28
47757;SHT35;22147;52.388;13.390;2023-06-26T05:08:52;20.57;82.46
47757;SHT35;22147;52.388;13.390;2023-06-26T05:11:24;20.69;81.79
47757;SHT35;22147;52.388;13.390;2023-06-26T05:13:55;20.68;80.51
47757;SHT35;22147;52.388;13.390;2023-06-26T05:16:25;20.69;80.19
47757;SHT35;22147;52.388;13.390;2023-06-26T05:18:54;20.68;79.94
47757;SHT35;22147;52.388;13.390;2023-06-26T05:21:23;20.68;80.18
47757;SHT35;22147;52.388;13.390;2023-06-26T05:23:57;20.61;80.46
47757;SHT35;22147;52.388;13.390;2023-06-26T05:26:28;20.65;80.52
47757;SHT35;22147;52.388;13.390;2023-06-26T05:28:59;20.65;80.56
47757;SHT35;22147;52.388;13.390;2023-06-26T05:31:33;20.69;80.81
47757;SHT35;22147;52.388;13.390;2023-06-26T05:34:07;20.69;80.71
47757;SHT35;22147;52.388;13.390;2023-06-26T05:36:41;20.68;80.59
47757;SHT35;22147;52.388;13.390;2023-06-26T05:39:13;20.67;80.67
47757;SHT35;22147;52.388;13.390;2023-06-26T05:41:45;20.81;80.14
47757;SHT35;22147;52.388;13.390;2023-06-26T05:44:15;20.89;80.44
47757;SHT35;22147;52.388;13.390;2023-06-26T05:46:46;21.12;80.06
47757;SHT35;22147;52.388;13.390;2023-06-26T05:49:16;21.36;78.01
47757;SHT35;22147;52.388;13.390;2023-06-26T05:51:47;21.60;77.67
47757;SHT35;22147;52.388;13.390;2023-06-26T05:54:18;21.80;77.04
47757;SHT35;22147;52.388;13.390;2023-06-26T05:56:56;22.02;75.94
47757;SHT35;22147;52.388;13.390;2023-06-26T05:59:27;22.41;74.81
47757;SHT35;22147;52.388;13.390;2023-06-26T06:01:58;22.59;73.41
47757;SHT35;22147;52.388;13.390;2023-06-26T06:04:26;22.79;72.10
47757;SHT35;22147;52.388;13.390;2023-06-26T06:06:55;23.07;71.70
47757;SHT35;22147;52.388;13.390;2023-06-26T06:09:23;23.41;70.58
47757;SHT35;22147;52.388;13.390;2023-06-26T06:11:52;23.64;69.22
47757;SHT35;22147;52.388;13.390;2023-06-26T06:14:20;23.82;70.20
47757;SHT35;22147;52.388;13.390;2023-06-26T06:16:49;24.14;68.87
47757;SHT35;22147;52.388;13.390;2023-06-26T06:19:17;24.40;67.72
47757;SHT35;22147;52.388;13.390;2023-06-26T06:21:45;24.45;66.48
47757;SHT35;22147;52.388;13.390;2023-06-26T06:24:14;24.64;66.71
47757;SHT35;22147;52.388;13.390;2023-06-26T06:26:43;24.75;65.71
47757;SHT35;22147;52.388;13.390;2023-06-26T06:29:11;25.07;64.83
47757;SHT35;22147;52.388;13.390;2023-06-26T06:31:39;25.08;64.16
47757;SHT35;22147;52.388;13.390;2023-06-26T06:34:08;25.33;63.42
47757;SHT35;22147;52.388;13.390;2023-06-26T06:36:37;25.59;62.68
47757;SHT35;22147;52.388;13.390;2023-06-26T06:39:07;25.80;62.56
47757;SHT35;22147;52.388;13.390;2023-06-26T06:41:35;25.88;61.77
47757;SHT35;22147;52.388;13.390;2023-06-26T06:44:04;26.17;62.26
47757;SHT35;22147;52.388;13.390;2023-06-26T06:46:32;26.46;59.85
47757;SHT35;22147;52.388;13.390;2023-06-26T06:49:01;26.52;59.64
47757;SHT35;22147;52.388;13.390;2023-06-26T06:51:29;26.90;59.97
47757;SHT35;22147;52.388;13.390;2023-06-26T06:53:57;26.97;58.92
47757;SHT35;22147;52.388;13.390;2023-06-26T06:56:26;27.16;58.05
47757;SHT35;22147;52.388;13.390;2023-06-26T06:58:54;27.00;57.25
47757;SHT35;22147;52.388;13.390;2023-06-26T07:01:23;27.16;58.82
47757;SHT35;22147;52.388;13.390;2023-06-26T07:03:52;27.38;57.83
47757;SHT35;22147;52.388;13.390;2023-06-26T07:06:20;27.44;56.99
47757;SHT35;22147;52.388;13.390;2023-06-26T07:08:49;27.75;56.91
47757;SHT35;22147;52.388;13.390;2023-06-26T07:11:18;28.00;54.33
47757;SHT35;22147;52.388;13.390;2023-06-26T07:13:46;27.96;55.32
47757;SHT35;22147;52.388;13.390;2023-06-26T07:16:14;27.84;55.17
47757;SHT35;22147;52.388;13.390;2023-06-26T07:18:43;28.08;54.71
47757;SHT35;22147;52.388;13.390;2023-06-26T07:21:11;28.06;51.55
47757;SHT35;22147;52.388;13.390;2023-06-26T07:23:40;27.92;52.67
47757;SHT35;22147;52.388;13.390;2023-06-26T07:26:08;28.25;52.79
47757;SHT35;22147;52.388;13.390;2023-06-26T07:28:37;28.02;51.78
47757;SHT35;22147;52.388;13.390;2023-06-26T07:31:05;28.19;52.04
47757;SHT35;22147;52.388;13.390;2023-06-26T07:33:33;28.30;53.45
47757;SHT35;22147;52.388;13.390;2023-06-26T07:36:02;28.39;51.19
47757;SHT35;22147;52.388;13.390;2023-06-26T07:38:30;28.44;50.62
47757;SHT35;22147;52.388;13.390;2023-06-26T07:41:01;28.82;51.04
47757;SHT35;22147;52.388;13.390;2023-06-26T07:43:29;28.80;50.73
47757;SHT35;22147;52.388;13.390;2023-06-26T07:45:58;28.95;51.20
47757;SHT35;22147;52.388;13.390;2023-06-26T07:48:27;28.47;52.58
47757;SHT35;22147;52.388;13.390;2023-06-26T07:50:55;28.88;51.45
47757;SHT35;22147;52.388;13.390;2023-06-26T07:53:23;28.92;49.29
47757;SHT35;22147;52.388;13.390;2023-06-26T07:55:52;29.11;49.81
47757;SHT35;22147;52.388;13.390;2023-06-26T07:58:20;29.25;51.41
47757;SHT35;22147;52.388;13.390;2023-06-26T08:00:49;29.42;51.25
47757;SHT35;22147;52.388;13.390;2023-06-26T08:03:17;29.53;48.79
47757;SHT35;22147;52.388;13.390;2023-06-26T08:06:03;29.32;48.61
47757;SHT35;22147;52.388;13.390;2023-06-26T08:08:34;29.32;49.18
47757;SHT35;22147;52.388;13.390;2023-06-26T08:11:04;29.53;48.55
47757;SHT35;22147;52.388;13.390;2023-06-26T08:13:34;29.69;48.30
47757;SHT35;22147;52.388;13.390;2023-06-26T08:16:04;29.70;46.27
47757;SHT35;22147;52.388;13.390;2023-06-26T08:18:35;29.81;47.91
47757;SHT35;22147;52.388;13.390;2023-06-26T08:21:05;29.90;46.70
47757;SHT35;22147;52.388;13.390;2023-06-26T08:23:36;29.40;45.16
47757;SHT35;22147;52.388;13.390;2023-06-26T08:26:08;29.25;45.45
47757;SHT35;22147;52.388;13.390;2023-06-26T08:28:38;29.67;45.37
47757;SHT35;22147;52.388;13.390;2023-06-26T08:31:08;29.56;45.43
47757;SHT35;22147;52.388;13.390;2023-06-26T08:33:38;29.60;44.85
47757;SHT35;22147;52.388;13.390;2023-06-26T08:36:09;29.80;45.38
47757;SHT35;22147;52.388;13.390;2023-06-26T08:38:39;29.91;46.66
47757;SHT35;22147;52.388;13.390;2023-06-26T08:41:10;29.87;45.82
47757;SHT35;22147;52.388;13.390;2023-06-26T08:43:41;29.72;45.95
47757;SHT35;22147;52.388;13.390;2023-06-26T08:46:11;29.84;45.80
47757;SHT35;22147;52.388;13.390;2023-06-26T08:48:55;30.13;47.46
47757;SHT35;22147;52.388;13.390;2023-06-26T08:51:30;30.20;46.67
47757;SHT35;22147;52.388;13.390;2023-06-26T08:54:11;30.52;44.99
47757;SHT35;22147;52.388;13.390;2023-06-26T08:56:49;30.61;46.32
47757;SHT35;22147;52.388;13.390;2023-06-26T08:59:17;30.79;44.34
47757;SHT35;22147;52.388;13.390;2023-06-26T09:01:46;30.69;45.09
47757;SHT35;22147;52.388;13.390;2023-06-26T09:04:15;30.58;44.02
47757;SHT35;22147;52.388;13.390;2023-06-26T09:06:44;30.39;46.78
47757;SHT35;22147;52.388;13.390;2023-06-26T09:09:12;29.97;44.68
47757;SHT35;22147;52.388;13.390;2023-06-26T09:11:40;30.17;46.54
47757;SHT35;22147;52.388;13.390;2023-06-26T09:14:10;30.01;44.99
47757;SHT35;22147;52.388;13.390;2023-06-26T09:16:42;30.48;45.99
47757;SHT35;22147;52.388;13.390;2023-06-26T09:19:13;30.15;44.24
47757;SHT35;22147;52.388;13.390;2023-06-26T09:21:44;29.97;45.60
47757;SHT35;22147;52.388;13.390;2023-06-26T09:24:15;30.42;44.90
47757;SHT35;22147;52.388;13.390;2023-06-26T09:26:48;30.73;44.56
47757;SHT35;22147;52.388;13.390;2023-06-26T09:29:20;30.83;44.41
47757;SHT35;22147;52.388;13.390;2023-06-26T09:31:51;30.87;42.57
47757;SHT35;22147;52.388;13.390;2023-06-26T09:34:22;30.82;46.56
47757;SHT35;22147;52.388;13.390;2023-06-26T09:37:00;30.41;42.26
47757;SHT35;22147;52.388;13.390;2023-06-26T09:39:33;30.69;41.21
47757;SHT35;22147;52.388;13.390;2023-06-26T09:42:05;30.78;43.04
47757;SHT35;22147;52.388;13.390;2023-06-26T09:44:36;30.94;43.60
47757;SHT35;22147;52.388;13.390;2023-06-26T09:47:07;31.14;43.94
47757;SHT35;22147;52.388;13.390;2023-06-26T09:49:42;31.19;40.69
47757;SHT35;22147;52.388;13.390;2023-06-26T09:52:18;30.97;40.71
47757;SHT35;22147;52.388;13.390;2023-06-26T09:54:49;30.89;43.89
47757;SHT35;22147;52.388;13.390;2023-06-26T09:57:20;31.06;41.80
47757;SHT35;22147;52.388;13.390;2023-06-26T09:59:50;31.13;43.88
47757;SHT35;22147;52.388;13.390;2023-06-26T10:02:21;31.17;40.50
47757;SHT35;22147;52.388;13.390;2023-06-26T10:04:51;30.94;42.29
47757;SHT35;22147;52.388;13.390;2023-06-26T10:07:22;30.86;45.74
47757;SHT35;22147;52.388;13.390;2023-06-26T10:09:56;30.75;43.02
47757;SHT35;22147;52.388;13.390;2023-06-26T10:12:30;30.93;42.35
47757;SHT35;22147;52.388;13.390;2023-06-26T10:15:03;31.19;44.18
47757;SHT35;22147;52.388;13.390;2023-06-26T10:17:43;31.24;42.42
47757;SHT35;22147;52.388;13.390;2023-06-26T10:20:17;31.00;43.37
47757;SHT35;22147;52.388;13.390;2023-06-26T10:22:49;31.35;41.80
47757;SHT35;22147;52.388;13.390;2023-06-26T10:25:22;31.48;41.18
47757;SHT35;22147;52.388;13.390;2023-06-26T10:28:02;31.48;40.82
47757;SHT35;22147;52.388;13.390;2023-06-26T10:30:37;31.26;40.85
47757;SHT35;22147;52.388;13.390;2023-06-26T10:33:11;31.24;43.92
47757;SHT35;22147;52.388;13.390;2023-06-26T10:35:46;31.14;41.24
47757;SHT35;22147;52.388;13.390;2023-06-26T10:38:13;31.34;42.86
47757;SHT35;22147;52.388;13.390;2023-06-26T10:40:47;31.10;39.92
47757;SHT35;22147;52.388;13.390;2023-06-26T10:43:30;30.82;40.65
47757;SHT35;22147;52.388;13.390;2023-06-26T10:46:00;31.23;41.31
47757;SHT35;22147;52.388;13.390;2023-06-26T10:48:29;31.41;39.73
47757;SHT35;22147;52.388;13.390;2023-06-26T10:50:57;31.50;38.83
47757;SHT35;22147;52.388;13.390;2023-06-26T10:53:42;31.23;40.30
47757;SHT35;22147;52.388;13.390;2023-06-26T10:56:15;31.40;40.86
47757;SHT35;22147;52.388;13.390;2023-06-26T10:58:45;31.33;42.29
47757;SHT35;22147;52.388;13.390;2023-06-26T11:01:21;31.19;41.46
47757;SHT35;22147;52.388;13.390;2023-06-26T11:04:06;31.33;39.68
47757;SHT35;22147;52.388;13.390;2023-06-26T11:06:38;30.83;39.92
47757;SHT35;22147;52.388;13.390;2023-06-26T11:09:15;31.19;41.20
47757;SHT35;22147;52.388;13.390;2023-06-26T11:14:35;31.24;39.74
47757;SHT35;22147;52.388;13.390;2023-06-26T11:17:06;31.50;42.02
47757;SHT35;22147;52.388;13.390;2023-06-26T11:19:33;31.37;40.69
47757;SHT35;22147;52.388;13.390;2023-06-26T11:22:05;31.53;42.41
47757;SHT35;22147;52.388;13.390;2023-06-26T11:24:37;31.75;41.98
47757;SHT35;22147;52.388;13.390;2023-06-26T11:27:06;31.85;41.48
47757;SHT35;22147;52.388;13.390;2023-06-26T11:29:36;31.84;41.31
47757;SHT35;22147;52.388;13.390;2023-06-26T11:32:07;31.84;40.19
47757;SHT35;22147;52.388;13.390;2023-06-26T11:34:37;31.71;40.97
47757;SHT35;22147;52.388;13.390;2023-06-26T11:37:08;31.71;41.21
47757;SHT35;22147;52.388;13.390;2023-06-26T11:39:38;31.54;40.28
47757;SHT35;22147;52.388;13.390;2023-06-26T11:42:11;31.57;40.17
47757;SHT35;22147;52.388;13.390;2023-06-26T11:44:44;31.75;41.41
47757;SHT35;22147;52.388;13.390;2023-06-26T11:47:20;31.53;39.80
47757;SHT35;22147;52.388;13.390;2023-06-26T11:49:49;31.45;41.05
47757;SHT35;22147;52.388;13.390;2023-06-26T11:52:17;31.45;40.75
47757;SHT35;22147;52.388;13.390;2023-06-26T11:54:47;31.50;41.92
47757;SHT35;22147;52.388;13.390;2023-06-26T11:57:15;31.40;41.59
47757;SHT35;22147;52.388;13.390;2023-06-26T11:59:43;31.19;41.88
47757;SHT35;22147;52.388;13.390;2023-06-26T12:02:14;31.34;40.17
47757;SHT35;22147;52.388;13.390;2023-06-26T12:04:46;31.24;41.67
47757;SHT35;22147;52.388;13.390;2023-06-26T12:07:18;31.40;40.33
47757;SHT35;22147;52.388;13.390;2023-06-26T12:09:49;31.38;41.63
47757;SHT35;22147;52.388;13.390;2023-06-26T12:12:19;31.09;40.62
47757;SHT35;22147;52.388;13.390;2023-06-26T12:14:49;31.42;43.55
47757;SHT35;22147;52.388;13.390;2023-06-26T12:17:24;31.67;42.77
47757;SHT35;22147;52.388;13.390;2023-06-26T12:19:55;31.50;40.86
47757;SHT35;22147;52.388;13.390;2023-06-26T12:22:23;31.19;41.45
47757;SHT35;22147;52.388;13.390;2023-06-26T12:24:56;30.97;41.63
47757;SHT35;22147;52.388;13.390;2023-06-26T12:27:28;31.03;44.64
47757;SHT35;22147;52.388;13.390;2023-06-26T12:29:59;30.94;43.01
47757;SHT35;22147;52.388;13.390;2023-06-26T12:32:27;30.79;43.24
47757;SHT35;22147;52.388;13.390;2023-06-26T12:34:58;30.78;44.75
47757;SHT35;22147;52.388;13.390;2023-06-26T12:37:28;30.87;44.21
47757;SHT35;22147;52.388;13.390;2023-06-26T12:39:58;31.09;42.96
47757;SHT35;22147;52.388;13.390;2023-06-26T12:42:33;31.38;43.28
47757;SHT35;22147;52.388;13.390;2023-06-26T12:45:12;31.21;42.84
47757;SHT35;22147;52.388;13.390;2023-06-26T12:48:20;30.90;44.23
47757;SHT35;22147;52.388;13.390;2023-06-26T12:50:50;30.99;43.38
47757;SHT35;22147;52.388;13.390;2023-06-26T12:53:21;30.86;42.45
47757;SHT35;22147;52.388;13.390;2023-06-26T12:55:51;30.82;44.64
47757;SHT35;22147;52.388;13.390;2023-06-26T12:58:21;30.83;45.03
47757;SHT35;22147;52.388;13.390;2023-06-26T13:00:50;30.96;45.84
47757;SHT35;22147;52.388;13.390;2023-06-26T13:03:20;31.10;44.72
47757;SHT35;22147;52.388;13.390;2023-06-26T13:05:51;31.16;44.23
47757;SHT35;22147;52.388;13.390;2023-06-26T13:08:20;31.09;43.33
47757;SHT35;22147;52.388;13.390;2023-06-26T13:10:48;31.33;45.17
47757;SHT35;22147;52.388;13.390;2023-06-26T13:13:18;31.44;42.34
47757;SHT35;22147;52.388;13.390;2023-06-26T13:15:48;31.54;41.70
47757;SHT35;22147;52.388;13.390;2023-06-26T13:18:18;31.61;44.09
47757;SHT35;22147;52.388;13.390;2023-06-26T13:20:48;31.95;40.98
47757;SHT35;22147;52.388;13.390;2023-06-26T13:23:18;31.82;42.78
47757;SHT35;22147;52.388;13.390;2023-06-26T13:25:49;31.41;40.17
47757;SHT35;22147;52.388;13.390;2023-06-26T13:28:19;31.24;43.17
47757;SHT35;22147;52.388;13.390;2023-06-26T13:30:49;31.65;41.86
47757;SHT35;22147;52.388;13.390;2023-06-26T13:33:19;31.35;42.75
47757;SHT35;22147;52.388;13.390;2023-06-26T13:35:49;31.58;43.88
47757;SHT35;22147;52.388;13.390;2023-06-26T13:38:21;31.65;41.16
47757;SHT35;22147;52.388;13.390;2023-06-26T13:40:55;31.72;42.47
47757;SHT35;22147;52.388;13.390;2023-06-26T13:43:29;32.05;42.10
47757;SHT35;22147;52.388;13.390;2023-06-26T13:46:01;32.67;42.03
47757;SHT35;22147;52.388;13.390;2023-06-26T13:48:31;32.47;38.35
47757;SHT35;22147;52.388;13.390;2023-06-26T13:50:59;32.15;40.84
47757;SHT35;22147;52.388;13.390;2023-06-26T13:53:28;32.72;40.11
47757;SHT35;22147;52.388;13.390;2023-06-26T13:55:56;32.93;40.29
47757;SHT35;22147;52.388;13.390;2023-06-26T13:58:25;32.01;40.63
47757;SHT35;22147;52.388;13.390;2023-06-26T14:00:56;31.44;42.03
47757;SHT35;22147;52.388;13.390;2023-06-26T14:03:27;31.68;41.08
47757;SHT35;22147;52.388;13.390;2023-06-26T14:05:57;31.68;42.27
47757;SHT35;22147;52.388;13.390;2023-06-26T14:08:27;30.92;42.14
47757;SHT35;22147;52.388;13.390;2023-06-26T14:10:57;30.68;44.07
47757;SHT35;22147;52.388;13.390;2023-06-26T14:13:27;30.39;44.00
47757;SHT35;22147;52.388;13.390;2023-06-26T14:15:57;30.14;44.36
47757;SHT35;22147;52.388;13.390;2023-06-26T14:18:27;29.96;46.18
47757;SHT35;22147;52.388;13.390;2023-06-26T14:20:57;29.69;44.64
47757;SHT35;22147;52.388;13.390;2023-06-26T14:23:27;29.56;45.79
47757;SHT35;22147;52.388;13.390;2023-06-26T14:25:57;29.62;44.71
47757;SHT35;22147;52.388;13.390;2023-06-26T14:28:27;28.91;49.82
47757;SHT35;22147;52.388;13.390;2023-06-26T14:30:55;27.57;52.87
47757;SHT35;22147;52.388;13.390;2023-06-26T14:33:23;26.36;60.79
47757;SHT35;22147;52.388;13.390;2023-06-26T14:35:52;24.95;69.80
47757;SHT35;22147;52.388;13.390;2023-06-26T14:38:23;23.24;75.50
47757;SHT35;22147;52.388;13.390;2023-06-26T14:40:52;22.28;80.66
47757;SHT35;22147;52.388;13.390;2023-06-26T14:43:20;21.75;82.52
47757;SHT35;22147;52.388;13.390;2023-06-26T14:45:50;21.57;83.60
47757;SHT35;22147;52.388;13.390;2023-06-26T14:48:20;21.18;85.03
47757;SHT35;22147;52.388;13.390;2023-06-26T14:50:49;21.00;86.31
47757;SHT35;22147;52.388;13.390;2023-06-26T14:53:18;20.92;86.67
47757;SHT35;22147;52.388;13.390;2023-06-26T14:55:47;20.95;86.73
47757;SHT35;22147;52.388;13.390;2023-06-26T14:58:17;20.89;87.63
47757;SHT35;22147;52.388;13.390;2023-06-26T15:00:45;20.94;87.77
47757;SHT35;22147;52.388;13.390;2023-06-26T15:03:15;20.89;87.89
47757;SHT35;22147;52.388;13.390;2023-06-26T15:05:44;20.91;88.13
47757;SHT35;22147;52.388;13.390;2023-06-26T15:08:14;20.91;87.76
47757;SHT35;22147;52.388;13.390;2023-06-26T15:10:44;20.91;87.48
47757;SHT35;22147;52.388;13.390;2023-06-26T15:13:14;20.94;88.10
47757;SHT35;22147;52.388;13.390;2023-06-26T15:15:44;20.95;88.31
47757;SHT35;22147;52.388;13.390;2023-06-26T15:18:14;20.94;87.28
47757;SHT35;22147;52.388;13.390;2023-06-26T15:20:44;20.91;87.27
47757;SHT35;22147;52.388;13.390;2023-06-26T15:23:15;20.95;87.40
47757;SHT35;22147;52.388;13.390;2023-06-26T15:25:45;20.98;87.44
47757;SHT35;22147;52.388;13.390;2023-06-26T15:28:15;20.91;86.47
47757;SHT35;22147;52.388;13.390;2023-06-26T15:30:45;20.89;86.52
47757;SHT35;22147;52.388;13.390;2023-06-26T15:33:16;20.94;86.67
47757;SHT35;22147;52.388;13.390;2023-06-26T15:35:46;20.89;85.69
47757;SHT35;22147;52.388;13.390;2023-06-26T15:38:16;20.92;85.37
47757;SHT35;22147;52.388;13.390;2023-06-26T15:40:46;20.81;86.01